Time;durP1;ratioP1;P1;durP2;ratioP2;P2;SDS_P1;SDS_P2;PMS_P1;PMS_P2;Temp;Humidity;BMP_temperature;BMP_pressure;BME280_temperature;BME280_humidity;BME280_pressure;Samples;Min_cycle;Max_cycle;Signal;HPM_P1;HPM_P2
2023/02/08 00:02:43;;;;;;;39.60;25.00;;;;;;;0.67;72.15;102898.95;175828;1270;46067;-87
2023/02/08 00:06:46;;;;;;;45.50;27.50;;;;;;;0.60;71.42;102902.23;175387;1276;46120;-86
2023/02/08 00:10:49;;;;;;;41.00;27.00;;;;;;;0.62;71.51;102898.42;175781;1271;46044;-86
2023/02/08 00:14:53;;;;;;;46.00;27.40;;;;;;;0.58;72.68;102900.85;175839;1271;58590;-87
2023/02/08 00:18:56;;;;;;;58.30;28.10;;;;;;;0.58;72.46;102895.78;175703;1270;45900;-88
2023/02/08 00:22:59;;;;;;;47.50;29.80;;;;;;;0.55;73.41;102899.27;176635;1275;46156;-88
2023/02/08 00:27:01;;;;;;;41.80;26.80;;;;;;;0.58;73.30;102898.59;177116;1273;46022;-87
2023/02/08 00:31:04;;;;;;;42.90;28.70;;;;;;;0.59;72.85;102900.52;176203;1270;46213;-88
2023/02/08 00:35:08;;;;;;;49.50;28.50;;;;;;;0.62;73.41;102908.37;176273;1270;58785;-87
2023/02/08 00:39:10;;;;;;;43.80;25.60;;;;;;;0.58;74.70;102902.77;176161;1276;46030;-87
2023/02/08 00:43:13;;;;;;;50.70;26.20;;;;;;;0.54;74.37;102906.25;176699;1271;46042;-88
2023/02/08 00:47:15;;;;;;;39.50;24.00;;;;;;;0.48;74.63;102906.76;176005;1276;46021;-88
2023/02/08 00:51:19;;;;;;;37.80;23.90;;;;;;;0.51;73.46;102902.94;175993;1270;46249;-87
2023/02/08 00:55:22;;;;;;;42.50;25.30;;;;;;;0.60;73.71;102907.14;175832;1276;60692;-88
2023/02/08 00:59:26;;;;;;;36.00;22.70;;;;;;;0.63;73.45;102907.32;175625;1271;46017;-88
2023/02/08 01:03:28;;;;;;;37.90;26.30;;;;;;;0.57;73.41;102913.42;175742;1273;44786;-88
2023/02/08 01:07:31;;;;;;;38.80;22.40;;;;;;;0.55;73.36;102905.55;175842;1274;45992;-88
2023/02/08 01:11:33;;;;;;;34.90;20.60;;;;;;;0.45;73.82;102903.27;175769;1270;46197;-87
2023/02/08 01:15:37;;;;;;;39.70;24.90;;;;;;;0.38;74.83;102906.02;175795;1271;58565;-88
2023/02/08 01:19:41;;;;;;;30.90;19.20;;;;;;;0.37;73.89;102903.23;176061;1271;46560;-88
2023/02/08 01:23:45;;;;;;;38.90;19.70;;;;;;;0.36;73.26;102898.34;175961;1270;46098;-89
2023/02/08 01:27:48;;;;;;;30.70;19.80;;;;;;;0.29;74.52;102894.31;175934;1270;46104;-87
2023/02/08 01:31:51;;;;;;;36.40;21.70;;;;;;;0.09;75.06;102890.40;175563;1271;45986;-87
2023/02/08 01:35:54;;;;;;;39.50;22.80;;;;;;;0.17;75.32;102893.39;175929;1270;58174;-87
2023/02/08 01:39:56;;;;;;;31.90;20.20;;;;;;;0.16;75.57;102889.73;175961;1270;45996;-87
2023/02/08 01:44:46;;;;;;;31.90;16.90;;;;;;;0.09;75.64;102888.65;175893;1270;46492;-87
2023/02/08 01:48:51;;;;;;;23.70;16.60;;;;;;;0.03;75.70;102890.38;176089;1270;46172;-88
2023/02/08 01:52:54;;;;;;;25.70;17.90;;;;;;;0.05;75.66;102889.51;175543;1270;46145;-86
2023/02/08 01:56:59;;;;;;;36.70;21.00;;;;;;;-0.19;77.11;102890.63;175867;1270;58672;-87
2023/02/08 02:01:02;;;;;;;21.30;13.30;;;;;;;-0.39;77.86;102896.44;175580;1270;48126;-87
2023/02/08 02:05:05;;;;;;;25.00;16.00;;;;;;;-0.38;77.76;102891.56;175973;1270;46011;-87
2023/02/08 02:09:27;;;;;;;20.80;12.90;;;;;;;-0.39;78.01;102893.48;175475;1270;46095;-87
2023/02/08 02:13:31;;;;;;;22.60;13.90;;;;;;;-0.58;78.88;102896.15;175695;1274;46124;-87
2023/02/08 02:17:36;;;;;;;23.90;17.10;;;;;;;-0.55;78.47;102893.55;175685;1276;60071;-88
2023/02/08 02:21:52;;;;;;;26.90;18.50;;;;;;;-0.43;78.39;102892.75;175790;1273;46123;-89
2023/02/08 02:26:20;;;;;;;24.00;15.00;;;;;;;-0.36;78.22;102900.81;176024;1270;44144;-88
2023/02/08 02:30:51;;;;;;;25.10;16.00;;;;;;;-0.29;78.17;102900.16;175766;1270;46231;-88
2023/02/08 02:35:55;;;;;;;24.60;15.50;;;;;;;-0.42;78.25;102897.12;175785;1270;45936;-88
2023/02/08 02:39:57;;;;;;;23.30;14.80;;;;;;;-0.54;78.51;102897.22;174972;1282;59514;-88
2023/02/08 02:44:01;;;;;;;20.60;11.10;;;;;;;-0.53;78.87;102903.50;175260;1277;46031;-87
2023/02/08 02:48:41;;;;;;;27.30;16.60;;;;;;;-0.63;78.75;102903.25;175269;1277;46214;-87
2023/02/08 02:53:20;;;;;;;32.60;15.20;;;;;;;-0.51;77.43;102898.64;174144;1285;46178;-86
2023/02/08 02:57:31;;;;;;;27.40;13.50;;;;;;;-0.50;76.69;102898.29;174223;1281;46098;-87
2023/02/08 03:01:34;;;;;;;24.60;13.10;;;;;;;-0.66;77.58;102903.76;174138;1282;58367;-88
2023/02/08 03:05:37;;;;;;;23.20;13.60;;;;;;;-0.68;78.57;102905.83;174036;1280;46059;-88
2023/02/08 03:09:59;;;;;;;32.00;16.50;;;;;;;-0.72;79.11;102902.48;173929;1282;46146;-86
2023/02/08 03:14:26;;;;;;;20.90;12.10;;;;;;;-0.73;80.22;102906.50;174280;1277;45983;-87
2023/02/08 03:18:29;;;;;;;24.40;15.70;;;;;;;-0.65;81.44;102913.36;174681;1276;46012;-87
2023/02/08 03:22:42;;;;;;;33.50;17.40;;;;;;;-0.65;82.09;102911.45;174774;1277;59828;-86
2023/02/08 03:27:00;;;;;;;28.40;15.50;;;;;;;-0.81;81.17;102909.75;175095;1270;46013;-87
2023/02/08 03:31:17;;;;;;;21.90;15.90;;;;;;;-0.73;79.52;102908.77;175341;1270;45973;-86
2023/02/08 03:35:35;;;;;;;22.20;11.50;;;;;;;-0.65;77.74;102907.26;175514;1271;46053;-87
2023/02/08 03:39:39;;;;;;;27.30;13.60;;;;;;;-0.69;77.63;102910.71;175892;1270;45954;-88
2023/02/08 03:43:49;;;;;;;23.80;12.80;;;;;;;-0.59;77.10;102910.08;176561;1270;60443;-86
2023/02/08 03:47:54;;;;;;;26.10;15.70;;;;;;;-0.61;78.42;102913.73;176137;1270;46124;-87
2023/02/08 03:52:00;;;;;;;26.80;15.20;;;;;;;-0.64;78.98;102910.40;176757;1270;44197;-88
2023/02/08 03:56:09;;;;;;;18.40;11.60;;;;;;;-0.69;79.34;102907.73;176383;1270;46069;-87
2023/02/08 04:00:16;;;;;;;24.20;12.90;;;;;;;-0.75;78.56;102912.75;177102;1271;46364;-88
2023/02/08 04:04:20;;;;;;;18.00;12.40;;;;;;;-0.81;78.31;102911.83;176492;1271;58134;-88
2023/02/08 04:08:24;;;;;;;19.80;12.70;;;;;;;-0.80;79.86;102917.77;176525;1270;45999;-89
2023/02/08 04:12:29;;;;;;;24.60;14.50;;;;;;;-0.74;81.72;102920.08;176787;1270;46120;-88
2023/02/08 04:16:35;;;;;;;28.50;18.00;;;;;;;-0.69;82.47;102922.58;177119;1270;46088;-89
2023/02/08 04:20:38;;;;;;;30.70;17.50;;;;;;;-0.73;82.62;102918.17;176539;1270;46113;-88
2023/02/08 04:24:41;;;;;;;25.40;15.90;;;;;;;-0.74;81.94;102921.65;176275;1270;59827;-89
2023/02/08 04:28:44;;;;;;;27.40;17.40;;;;;;;-0.80;81.61;102925.96;176295;1270;46006;-87
2023/02/08 04:32:46;;;;;;;28.90;16.60;;;;;;;-0.82;81.78;102920.53;176013;1270;46072;-88
2023/02/08 04:36:49;;;;;;;24.50;14.60;;;;;;;-0.72;81.72;102925.33;176428;1274;45153;-88
2023/02/08 04:40:52;;;;;;;34.00;21.90;;;;;;;-0.78;83.08;102928.95;176317;1270;46191;-89
2023/02/08 04:44:54;;;;;;;27.60;14.50;;;;;;;-0.72;83.61;102934.90;176410;1270;60242;-89
2023/02/08 04:48:56;;;;;;;33.10;17.70;;;;;;;-0.84;83.72;102937.24;176350;1270;45078;-88
2023/02/08 04:53:00;;;;;;;30.00;18.70;;;;;;;-0.92;81.51;102935.26;176494;1270;46101;-88
2023/02/08 04:57:03;;;;;;;33.30;19.70;;;;;;;-0.95;81.52;102928.45;177600;1270;46005;-88
2023/02/08 05:01:12;;;;;;;49.80;26.00;;;;;;;-0.90;81.48;102924.65;177832;1270;45976;-89
2023/02/08 05:05:34;;;;;;;41.30;23.90;;;;;;;-0.92;82.08;102920.11;176069;1270;58314;-88
2023/02/08 05:09:36;;;;;;;41.70;20.40;;;;;;;-0.84;82.25;102920.35;176565;1270;46091;-87
2023/02/08 05:13:39;;;;;;;32.20;21.50;;;;;;;-0.80;82.61;102924.04;176588;1275;46226;-89
2023/02/08 05:17:42;;;;;;;29.30;16.40;;;;;;;-0.84;82.66;102922.09;176859;1270;46057;-88
2023/02/08 05:21:45;;;;;;;35.00;21.50;;;;;;;-0.74;82.25;102924.96;177655;1270;45980;-89
2023/02/08 05:25:47;;;;;;;36.30;22.70;;;;;;;-0.70;81.03;102931.61;177328;1270;59384;-90
2023/02/08 05:29:51;;;;;;;44.10;23.30;;;;;;;-0.64;81.00;102940.73;177634;1275;47938;-89
2023/02/08 05:33:56;;;;;;;25.60;17.50;;;;;;;-0.74;81.00;102946.23;177117;1270;46434;-88
2023/02/08 05:38:08;;;;;;;40.60;21.30;;;;;;;-0.78;81.01;102945.31;177644;1270;45843;-90
2023/02/08 05:42:11;;;;;;;31.00;18.80;;;;;;;-0.85;80.47;102943.52;177667;1269;45977;-89
2023/02/08 05:46:13;;;;;;;40.80;22.30;;;;;;;-0.81;79.65;102936.77;177372;1270;59664;-89
2023/02/08 05:50:17;;;;;;;29.60;19.10;;;;;;;-0.87;79.80;102941.05;177391;1270;46145;-89
2023/02/08 05:54:43;;;;;;;29.20;19.10;;;;;;;-0.99;80.71;102944.25;177766;1270;46115;-89
2023/02/08 05:58:46;;;;;;;35.00;23.30;;;;;;;-1.14;81.56;102941.50;177695;1270;45702;-89
2023/02/08 06:02:48;;;;;;;37.20;19.30;;;;;;;-1.15;81.30;102938.72;179116;1270;45874;-87
2023/02/08 06:06:51;;;;;;;34.30;19.20;;;;;;;-1.20;81.29;102934.47;179537;1273;58253;-84
2023/02/08 06:15:19;;;;;;;42.60;26.50;;;;;;;-1.34;81.89;102930.52;179701;1270;44727;-84
2023/02/08 06:19:21;;;;;;;41.60;21.00;;;;;;;-1.41;82.63;102932.34;179592;1270;44629;-87
2023/02/08 06:23:30;;;;;;;35.60;22.00;;;;;;;-1.46;83.31;102934.21;179753;1274;45301;-85
2023/02/08 06:27:32;;;;;;;24.90;17.50;;;;;;;-1.55;83.91;102935.69;179500;1270;58755;-82
2023/02/08 06:35:53;;;;;;;36.40;20.00;;;;;;;-1.64;84.41;102935.22;179860;1266;84725;-78
2023/02/08 06:39:56;;;;;;;30.60;18.10;;;;;;;-1.59;84.00;102938.92;179181;1270;44906;-81
2023/02/08 06:44:00;;;;;;;42.50;21.80;;;;;;;-1.52;83.61;102943.36;179231;1269;43719;-80
2023/02/08 06:48:03;;;;;;;31.70;19.40;;;;;;;-1.34;83.24;102943.38;179488;1270;58493;-81
2023/02/08 06:52:06;;;;;;;34.40;22.70;;;;;;;-1.14;82.58;102944.65;179213;1269;44486;-75
2023/02/08 06:56:09;;;;;;;38.80;23.00;;;;;;;-0.91;82.11;102947.12;179175;1269;46127;-77
2023/02/08 07:00:13;;;;;;;48.10;27.90;;;;;;;-0.73;81.37;102953.55;179198;1270;43644;-76
2023/02/08 07:04:19;;;;;;;62.90;33.50;;;;;;;-0.57;80.44;102956.81;178753;1269;44570;-78
2023/02/08 07:08:22;;;;;;;70.80;39.50;;;;;;;-0.49;79.76;102956.36;179082;1270;59760;-78
2023/02/08 07:12:25;;;;;;;45.60;26.30;;;;;;;-0.39;79.23;102970.20;178957;1270;45954;-83
2023/02/08 07:16:28;;;;;;;41.20;26.20;;;;;;;-0.27;79.31;102969.23;179394;1269;43971;-80
2023/02/08 07:20:31;;;;;;;40.90;22.70;;;;;;;-0.11;79.47;102970.04;179253;1270;44496;-75
2023/02/08 07:24:36;;;;;;;42.80;26.30;;;;;;;0.03;79.03;102974.31;179526;1270;44703;-80
2023/02/08 07:28:41;;;;;;;42.80;25.30;;;;;;;0.12;78.24;102981.51;179845;1270;185759;-81
2023/02/08 07:32:47;;;;;;;31.10;25.30;;;;;;;0.12;78.16;102979.94;179593;1269;46031;-78
2023/02/08 07:36:50;;;;;;;62.80;41.40;;;;;;;0.09;78.79;102979.92;179297;1269;45868;-76
2023/02/08 07:45:32;;;;;;;48.80;29.20;;;;;;;0.20;78.70;102992.73;179503;1271;46321;-87
2023/02/08 07:49:40;;;;;;;44.50;27.60;;;;;;;0.35;78.58;102996.63;179389;1270;59612;-86
2023/02/08 07:53:43;;;;;;;49.30;30.80;;;;;;;0.55;77.71;103003.17;179515;1270;45780;-89
2023/02/08 08:02:03;;;;;;;43.40;23.00;;;;;;;0.85;77.01;103006.42;179676;1267;44543;-90
2023/02/08 08:06:05;;;;;;;38.90;20.40;;;;;;;0.89;76.66;103002.92;179783;1269;44607;-88
2023/02/08 08:10:08;;;;;;;46.80;30.40;;;;;;;0.68;76.72;103000.26;179802;1273;57928;-89
2023/02/08 08:14:10;;;;;;;50.50;28.10;;;;;;;0.75;76.24;103001.33;179611;1271;44719;-86
2023/02/08 08:18:12;;;;;;;55.40;30.70;;;;;;;0.71;76.86;103002.88;179499;1271;45977;-87
2023/02/08 08:22:14;;;;;;;66.80;33.50;;;;;;;0.71;75.96;103002.88;179740;1272;44583;-85
2023/02/08 08:30:34;;;;;;;41.80;24.10;;;;;;;0.58;76.13;103003.71;169977;1270;58091;-79
2023/02/08 08:34:37;;;;;;;43.20;27.70;;;;;;;0.58;75.14;103007.02;179305;1269;46131;-78
2023/02/08 08:38:45;;;;;;;42.20;21.70;;;;;;;0.70;74.77;103006.73;179297;1270;43816;-76
2023/02/08 08:42:48;;;;;;;31.60;18.40;;;;;;;0.75;73.76;103008.66;178981;1271;46004;-77
2023/02/08 08:46:55;;;;;;;33.20;21.60;;;;;;;0.63;74.08;103011.06;178964;1270;45934;-79
2023/02/08 08:51:02;;;;;;;38.40;23.10;;;;;;;0.71;74.93;103014.42;179057;1270;58658;-76
2023/02/08 08:55:06;;;;;;;41.70;24.50;;;;;;;0.87;75.78;103017.27;178898;1270;45251;-78
2023/02/08 08:59:15;;;;;;;33.30;15.80;;;;;;;0.89;74.84;103025.31;178886;1270;46041;-78
2023/02/08 09:03:18;;;;;;;39.70;23.60;;;;;;;0.82;73.98;103023.02;178942;1271;46174;-78
2023/02/08 09:07:21;;;;;;;41.80;24.60;;;;;;;1.04;74.75;103027.44;178927;1273;45931;-78
2023/02/08 09:11:23;;;;;;;55.90;32.00;;;;;;;1.23;73.80;103020.13;178628;1270;75496;-87
2023/02/08 09:15:26;;;;;;;31.10;19.00;;;;;;;1.34;73.13;103022.59;180490;1271;44539;-86
2023/02/08 09:19:28;;;;;;;35.50;18.90;;;;;;;1.35;72.60;103025.38;180554;1270;43425;-87
2023/02/08 09:23:30;;;;;;;37.40;20.70;;;;;;;1.35;72.85;103027.66;180461;1270;43873;-86
2023/02/08 09:27:33;;;;;;;36.60;20.80;;;;;;;1.50;72.86;103030.11;180394;1270;43776;-87
2023/02/08 09:31:36;;;;;;;29.20;19.30;;;;;;;1.55;72.28;103029.59;180289;1273;57709;-85
2023/02/08 09:35:38;;;;;;;31.50;16.00;;;;;;;1.60;72.97;103020.32;180544;1271;44163;-85
2023/02/08 09:39:42;;;;;;;30.20;19.90;;;;;;;1.60;72.88;103025.57;180501;1269;44115;-87
2023/02/08 09:44:03;;;;;;;31.00;19.40;;;;;;;1.80;71.43;103030.80;180464;1269;43846;-87
2023/02/08 09:48:22;;;;;;;23.70;14.80;;;;;;;1.85;70.40;103024.33;180480;1271;43839;-87
2023/02/08 09:52:43;;;;;;;20.70;15.10;;;;;;;1.56;69.80;103027.31;180371;1271;58106;-85
2023/02/08 09:56:47;;;;;;;20.70;14.10;;;;;;;1.61;69.56;103021.90;180180;1272;43865;-86
2023/02/08 10:00:52;;;;;;;16.60;9.20;;;;;;;1.68;69.73;103019.80;180475;1271;44021;-86
2023/02/08 10:05:00;;;;;;;30.70;18.70;;;;;;;1.69;69.22;103013.15;180258;1270;44064;-87
2023/02/08 10:09:12;;;;;;;18.00;10.90;;;;;;;1.66;68.91;103012.80;180433;1270;43947;-87
2023/02/08 10:13:59;;;;;;;19.20;12.60;;;;;;;1.39;69.08;103015.23;164562;1268;84893;-78
2023/02/08 10:23:17;;;;;;;20.00;9.90;;;;;;;1.53;68.96;103017.17;172440;1300;59107;-88
2023/02/08 10:32:39;;;;;;;18.40;12.90;;;;;;;1.62;69.08;103009.31;176058;1271;330559;-89
2023/02/08 10:46:05;;;;;;;41.80;24.40;;;;;;;1.91;69.74;102985.64;179896;1267;57976;-88
2023/02/08 10:50:23;;;;;;;47.50;25.50;;;;;;;2.01;70.27;102986.15;179780;1268;44699;-87
2023/02/08 11:46:47;;;;;;;23.40;15.40;;;;;;;2.12;72.91;102920.98;179809;1266;46099;-85
2023/02/08 11:58:06;;;;;;;29.50;18.70;;;;;;;2.21;73.37;102908.70;179906;1267;60761;-89
2023/02/08 13:17:12;;;;;;;50.40;27.30;;;;;;;2.92;74.33;102860.07;179669;1267;58749;-79
2023/02/08 13:21:23;;;;;;;45.00;28.30;;;;;;;2.87;74.83;102856.96;179675;1267;45931;-81
2023/02/08 13:25:35;;;;;;;43.90;26.60;;;;;;;2.85;74.85;102853.83;179373;1267;43990;-82
2023/02/08 13:29:43;;;;;;;45.50;28.90;;;;;;;2.77;74.48;102848.63;179319;1270;46046;-75
2023/02/08 13:38:32;;;;;;;53.10;29.50;;;;;;;2.59;74.42;102848.75;179446;1267;58409;-82
2023/02/08 13:42:43;;;;;;;50.30;31.20;;;;;;;2.56;74.97;102840.73;180262;1266;43605;-76
2023/02/08 13:46:51;;;;;;;46.50;29.30;;;;;;;2.58;75.74;102838.61;180401;1267;43519;-83
2023/02/08 13:50:56;;;;;;;47.00;27.50;;;;;;;2.51;75.14;102841.09;180425;1267;44035;-77
2023/02/08 13:55:32;;;;;;;55.20;33.00;;;;;;;2.46;75.30;102845.16;180338;1267;46231;-83
2023/02/08 13:59:40;;;;;;;51.90;30.70;;;;;;;2.36;75.84;102844.70;180207;1267;58327;-78
2023/02/08 14:04:08;;;;;;;40.40;24.50;;;;;;;2.23;75.69;102848.80;179970;1264;43711;-81
2023/02/08 14:08:23;;;;;;;50.10;32.10;;;;;;;2.22;76.58;102847.23;179657;1265;46170;-77
2023/02/08 14:12:54;;;;;;;51.50;33.00;;;;;;;2.20;76.88;102844.09;179783;1265;43680;-75
2023/02/08 14:17:19;;;;;;;42.80;29.60;;;;;;;2.31;76.33;102842.27;179689;1265;44629;-82
2023/02/08 14:21:30;;;;;;;48.10;30.40;;;;;;;2.41;75.66;102836.61;179584;1265;58118;-77
2023/02/08 14:25:48;;;;;;;51.60;29.80;;;;;;;2.36;75.38;102834.19;179964;1263;45825;-83
2023/02/08 14:30:15;;;;;;;44.90;27.80;;;;;;;2.36;74.97;102838.56;180036;1262;45997;-78
2023/02/08 14:34:26;;;;;;;43.90;27.70;;;;;;;2.37;74.99;102831.91;179798;1264;45894;-81
2023/02/08 14:38:52;;;;;;;50.80;28.00;;;;;;;2.34;74.74;102823.02;179961;1263;45928;-75
2023/02/08 14:43:28;;;;;;;59.90;30.50;;;;;;;2.27;75.16;102822.34;180066;1262;57269;-78
2023/02/08 14:47:34;;;;;;;51.40;30.80;;;;;;;2.14;75.21;102823.10;180340;1262;43412;-79
2023/02/08 14:51:48;;;;;;;64.10;33.50;;;;;;;2.14;75.88;102817.34;180248;1263;43746;-76
2023/02/08 14:56:03;;;;;;;53.10;34.00;;;;;;;2.16;76.42;102821.70;180067;1263;44671;-80
2023/02/08 15:00:33;;;;;;;68.40;41.50;;;;;;;2.17;76.64;102821.18;180251;1263;46046;-78
2023/02/08 15:04:43;;;;;;;64.10;34.20;;;;;;;2.11;76.92;102822.95;180178;1263;58456;-84
2023/02/08 15:08:51;;;;;;;50.60;32.30;;;;;;;2.07;76.94;102817.20;179879;1264;44022;-81
2023/02/08 15:13:02;;;;;;;65.40;38.20;;;;;;;2.03;76.00;102816.01;179804;1263;44146;-80
2023/02/08 15:17:23;;;;;;;65.60;34.40;;;;;;;1.91;76.29;102822.36;179813;1265;45962;-82
2023/02/08 15:21:31;;;;;;;67.80;37.70;;;;;;;1.75;76.57;102820.33;179680;1265;46642;-81
2023/02/08 15:25:42;;;;;;;71.80;38.30;;;;;;;1.68;77.42;102820.36;179854;1264;58275;-81
2023/02/08 15:29:46;;;;;;;62.20;38.60;;;;;;;1.63;77.37;102824.75;179755;1264;43525;-87
2023/02/08 15:33:53;;;;;;;59.80;37.90;;;;;;;1.59;78.04;102820.91;179706;1264;45966;-81
2023/02/08 15:38:00;;;;;;;64.80;38.50;;;;;;;1.54;78.56;102810.78;180024;1264;45918;-77
2023/02/08 15:42:05;;;;;;;;;;;;;;;1.50;79.52;102806.61;179765;1264;46215;-80
2023/02/08 15:46:26;;;;;;;79.10;42.10;;;;;;;1.47;79.65;102803.64;179780;1267;58177;-78
2023/02/08 15:50:33;;;;;;;85.50;44.90;;;;;;;1.39;79.93;102802.27;179806;1263;45433;-87
2023/02/08 15:54:38;;;;;;;72.10;42.90;;;;;;;1.32;80.00;102801.40;179723;1264;44594;-79
2023/02/08 15:58:48;;;;;;;78.80;42.20;;;;;;;1.21;80.36;102800.56;179798;1265;43903;-81
2023/02/08 16:03:01;;;;;;;69.10;41.90;;;;;;;1.14;80.88;102793.39;180323;1263;43523;-79
2023/02/08 16:07:06;;;;;;;82.20;43.30;;;;;;;1.09;81.11;102790.97;180333;1264;61129;-83
2023/02/08 16:11:29;;;;;;;81.00;47.50;;;;;;;1.03;81.49;102790.27;180119;1262;43590;-77
2023/02/08 16:15:43;;;;;;;75.90;47.00;;;;;;;0.97;81.98;102788.19;180224;1264;44154;-82
2023/02/08 16:19:57;;;;;;;70.40;47.80;;;;;;;0.93;82.26;102792.21;179737;1263;44682;-86
2023/02/08 16:24:10;;;;;;;91.10;48.40;;;;;;;0.81;83.02;102788.38;179719;1264;43789;-83
2023/02/08 16:28:32;;;;;;;85.20;47.00;;;;;;;0.68;83.74;102786.45;179973;1262;58122;-83
2023/02/08 16:32:38;;;;;;;89.20;47.10;;;;;;;0.47;85.35;102787.86;179860;1264;46075;-78
2023/02/08 16:36:47;;;;;;;73.90;44.80;;;;;;;0.28;86.56;102786.95;179857;1264;44754;-84
2023/02/08 16:40:58;;;;;;;92.70;46.70;;;;;;;0.24;87.12;102787.48;180045;1264;45994;-80
2023/02/08 16:45:08;;;;;;;74.90;49.40;;;;;;;0.24;87.26;102789.58;179857;1263;43678;-84
2023/02/08 16:49:18;;;;;;;66.30;42.90;;;;;;;0.23;87.05;102790.27;179928;1264;58103;-78
2023/02/08 16:53:48;;;;;;;83.90;45.90;;;;;;;0.08;87.88;102790.93;178241;1264;82689;-88
2023/02/08 16:57:54;;;;;;;89.30;50.20;;;;;;;-0.08;89.17;102789.67;177955;1267;46021;-87
2023/02/08 17:01:58;;;;;;;93.90;50.30;;;;;;;-0.18;89.84;102789.81;177773;1267;46188;-87
2023/02/08 17:06:01;;;;;;;84.30;51.20;;;;;;;-0.21;90.41;102785.96;177855;1267;44146;-88
2023/02/08 17:10:13;;;;;;;84.70;46.60;;;;;;;-0.30;91.03;102789.60;177456;1267;59710;-87
2023/02/08 17:14:17;;;;;;;89.60;49.00;;;;;;;-0.37;91.77;102779.80;177175;1266;46121;-87
2023/02/08 17:18:23;;;;;;;91.50;50.50;;;;;;;-0.47;92.56;102784.11;177563;1266;45978;-89
2023/02/08 17:22:26;;;;;;;82.60;48.90;;;;;;;-0.50;93.04;102781.31;177208;1266;46155;-89
2023/02/08 17:26:41;;;;;;;81.60;44.70;;;;;;;-0.56;93.51;102782.34;176841;1267;46024;-88
2023/02/08 17:30:49;;;;;;;100.00;55.60;;;;;;;-0.58;94.03;102779.55;177779;1267;58036;-90
2023/02/08 17:34:53;;;;;;;84.20;46.10;;;;;;;-0.67;94.84;102781.57;177474;1267;46095;-90
2023/02/08 17:38:57;;;;;;;88.40;51.90;;;;;;;-0.69;95.18;102779.48;176701;1267;45976;-88
2023/02/08 17:43:03;;;;;;;99.40;56.70;;;;;;;-0.68;95.31;102775.84;177740;1265;46110;-88
2023/02/08 17:47:06;;;;;;;95.40;53.50;;;;;;;-0.67;95.37;102774.60;177589;1267;46432;-88
2023/02/08 17:51:12;;;;;;;108.50;66.90;;;;;;;-0.68;95.03;102775.11;176759;1267;58691;-89
2023/02/08 17:55:18;;;;;;;101.20;62.80;;;;;;;-0.62;93.56;102776.02;178106;1266;45251;-89
2023/02/08 17:59:43;;;;;;;86.40;45.00;;;;;;;-0.59;92.58;102778.14;178192;1266;45134;-91
2023/02/08 18:03:53;;;;;;;94.70;51.70;;;;;;;-0.65;92.82;102774.95;177271;1267;45943;-90
2023/02/08 18:07:58;;;;;;;78.90;41.80;;;;;;;-0.67;93.15;102773.03;177969;1265;45913;-89
2023/02/08 18:12:04;;;;;;;69.50;44.50;;;;;;;-0.58;93.14;102773.25;177972;1267;59460;-89
2023/02/08 18:16:22;;;;;;;92.20;50.70;;;;;;;-0.57;92.83;102765.60;177893;1267;44654;-89
2023/02/08 18:20:27;;;;;;;79.60;47.80;;;;;;;-0.61;92.94;102759.99;177748;1266;45982;-89
2023/02/08 18:24:31;;;;;;;89.50;49.80;;;;;;;-0.61;92.55;102747.45;177546;1266;48537;-89
2023/02/08 18:28:47;;;;;;;96.50;54.80;;;;;;;-0.60;92.72;102742.76;178804;1267;45919;-90
2023/02/08 18:32:51;;;;;;;79.60;48.00;;;;;;;-0.60;92.44;102744.48;178078;1265;60772;-90
2023/02/08 18:37:15;;;;;;;77.30;43.20;;;;;;;-0.70;93.19;102738.52;178339;1265;46079;-90
2023/02/08 18:50:58;;;;;;;84.80;52.90;;;;;;;-0.79;93.71;102737.61;178997;1264;45886;-90
2023/02/08 18:55:06;;;;;;;94.70;49.60;;;;;;;-0.85;94.17;102734.61;179422;1264;59299;-90
2023/02/08 19:04:10;;;;;;;78.60;50.90;;;;;;;-0.91;94.64;102737.17;180810;1264;50583;-90
2023/02/08 19:08:44;;;;;;;116.90;67.90;;;;;;;-0.87;94.05;102736.86;146050;1260;84557;-89
2023/02/08 19:12:50;;;;;;;102.80;59.80;;;;;;;-0.92;94.11;102733.35;180697;1267;43926;-90
2023/02/08 19:16:55;;;;;;;86.10;48.30;;;;;;;-0.93;93.84;102735.09;180710;1266;59199;-88
2023/02/08 19:21:10;;;;;;;97.60;55.30;;;;;;;-0.88;92.61;102739.99;180666;1267;43962;-88
2023/02/08 19:25:16;;;;;;;97.10;52.20;;;;;;;-0.77;91.97;102746.50;180639;1266;46741;-89
2023/02/08 19:34:04;;;;;;;81.40;51.10;;;;;;;-0.48;90.05;102751.51;180999;1263;49903;-88
2023/02/08 19:38:07;;;;;;;;;;;;;;;-0.44;89.08;102751.00;180814;1264;59861;-89
2023/02/08 20:01:49;;;;;;;234.50;113.70;;;;;;;-1.27;92.44;102700.75;180710;1257;74556;-77
2023/02/08 20:05:53;;;;;;;117.20;63.40;;;;;;;-1.24;92.31;102692.59;180523;1265;43930;-89
2023/02/08 20:09:56;;;;;;;102.50;52.60;;;;;;;-1.22;92.02;102691.03;180333;1265;43813;-89
2023/02/08 20:14:01;;;;;;;91.60;52.40;;;;;;;-1.20;91.73;102696.43;180284;1264;43877;-89
2023/02/08 20:18:05;;;;;;;96.10;55.30;;;;;;;-1.20;91.71;102701.13;180409;1265;43937;-88
2023/02/08 20:22:08;;;;;;;93.10;52.00;;;;;;;-1.18;91.25;102700.80;180233;1265;59225;-89
2023/02/08 20:26:20;;;;;;;85.90;49.90;;;;;;;-1.19;91.19;102699.21;180364;1265;44184;-89
2023/02/08 20:30:24;;;;;;;84.30;44.30;;;;;;;-1.24;91.19;102693.79;180490;1265;44134;-88
2023/02/08 20:34:27;;;;;;;92.40;51.70;;;;;;;-1.34;91.81;102685.91;180387;1265;48313;-87
2023/02/08 20:38:31;;;;;;;83.90;47.90;;;;;;;-1.48;92.39;102689.63;180579;1264;44273;-89
2023/02/08 20:42:34;;;;;;;79.70;45.80;;;;;;;-1.51;92.32;102680.56;180507;1265;58661;-89
2023/02/08 20:46:38;;;;;;;82.20;52.00;;;;;;;-1.53;92.06;102670.29;180696;1265;43747;-91
2023/02/08 21:22:10;;;;;;;114.90;61.50;;;;;;;-1.70;90.00;102624.58;181283;1261;43051;-67
2023/02/08 21:26:16;;;;;;;66.80;39.90;;;;;;;-1.69;89.62;102620.58;181316;1262;43439;-68
2023/02/08 21:30:20;;;;;;;85.80;43.10;;;;;;;-1.76;89.86;102618.61;181351;1262;58472;-66
2023/02/08 21:34:23;;;;;;;72.00;39.20;;;;;;;-1.71;89.82;102615.17;181373;1262;43029;-66
2023/02/08 21:38:26;;;;;;;77.40;36.70;;;;;;;-1.76;89.91;102608.52;181393;1262;43183;-67
2023/02/08 21:42:58;;;;;;;62.60;37.30;;;;;;;-1.77;90.24;102607.13;181288;1261;43241;-67
2023/02/08 21:47:01;;;;;;;49.60;25.80;;;;;;;-1.82;90.68;102596.82;181338;1262;42964;-67
2023/02/08 21:57:06;;;;;;;103.70;48.60;;;;;;;-1.70;89.24;102578.11;181454;1260;43068;-67
2023/02/08 22:01:09;;;;;;;112.30;57.90;;;;;;;-1.68;88.70;102584.73;181442;1260;43885;-66
2023/02/08 22:10:28;;;;;;;169.10;81.50;;;;;;;-1.51;86.73;102580.48;181341;1262;43117;-67
2023/02/08 22:14:35;;;;;;;159.70;78.40;;;;;;;-1.49;86.51;102576.14;181319;1261;58220;-67
2023/02/08 22:18:40;;;;;;;172.10;70.60;;;;;;;-1.52;86.53;102573.70;181346;1261;43889;-67
2023/02/08 22:22:58;;;;;;;138.50;65.20;;;;;;;-1.54;86.45;102577.17;181303;1262;43015;-67
2023/02/08 22:27:02;;;;;;;107.00;57.20;;;;;;;-1.57;86.40;102577.67;181309;1261;43360;-67
2023/02/08 22:31:05;;;;;;;103.60;54.30;;;;;;;-1.62;86.37;102572.59;181196;1262;157282;-67
2023/02/08 22:35:11;;;;;;;111.40;56.00;;;;;;;-1.61;85.86;102564.94;181225;1262;58423;-66
2023/02/08 22:39:14;;;;;;;88.00;45.70;;;;;;;-1.55;85.18;102565.69;181267;1261;43634;-67
2023/02/08 22:43:17;;;;;;;89.20;46.40;;;;;;;-1.63;85.35;102561.80;181367;1260;42991;-67
2023/02/08 22:47:21;;;;;;;91.70;48.80;;;;;;;-1.63;84.91;102555.19;181483;1260;43356;-67
2023/02/08 22:51:24;;;;;;;70.70;38.10;;;;;;;-1.64;84.70;102553.98;181222;1262;43079;-67
2023/02/08 22:55:27;;;;;;;62.30;33.60;;;;;;;-1.65;84.50;102554.31;181273;1261;57929;-67
2023/02/08 22:59:32;;;;;;;95.10;44.30;;;;;;;-1.67;84.37;102547.16;181263;1261;43643;-67
2023/02/08 23:03:35;;;;;;;63.70;35.20;;;;;;;-1.64;84.12;102546.84;181233;1263;43403;-67